横田飛行場の過去48時間の天気

横田飛行場 (Yokota)

現在時刻: 10/18 13:02 JST (10/18 04:02 UTC) 以下の時間は現地時間です。

過去48時間のMETAR気象情報
時間 風向 風速(m/s) 視程 気温(℃) 湿度(%) 気圧(hPa) 天気現象
18 11:56 東北東 3 10km以上 18.9 54 1017.8
18 10:56 北北東 3 10km以上 18.8 56 1017.8
18 09:56 北東 3 10km以上 17.9 63 1018.1
18 08:56 4 10km以上 17.1 69 1018.8
18 07:56 北北東 3 10km以上 15.2 80 1018.5
18 06:56 3 10km以上 14 89 1018.5
18 05:56 2 10km以上 12.2 90 1017.9
18 04:56 2 10km以上 12.4 90 1017.6
18 03:56 北東 2 10km以上 12.8 85 1016.8
17 23:56 静穏 0 10km以上 15.7 76 1015.9
17 22:56 2 10km以上 15.7 76 1016.3
17 21:56 静穏 0 10km以上 16.3 73 1016.7
17 21:41 静穏 0 10km以上 16 72 1016.7
17 20:56 2 10km以上 16.3 71 1016.4
17 20:26 2 10km以上 17 68 1015.7
17 19:56 静穏 0 10km以上 17 66 1015.7
17 18:56 北西 3 10km以上 17.6 63 1015.4
17 17:56 北西 3 10km以上 17.9 63 1014.8
17 16:56 北西 3 10km以上 18.3 61 1013.7
17 15:56 北北西 3 10km以上 18.9 56 1013
17 14:56 北北西 4 10km以上 19.1 52 1012
17 13:56 北北西 4 10km以上 19.4 57 1012
17 12:56 北北西 6 10km以上 19.7 55 1011.6
17 11:56 東北東 6 10km以上 21.6 52 1011.9
17 11:27 東北東 5 10km以上 21 56 1011.9
17 10:56 東北東 5 10km以上 20.8 56 1012.2
17 09:56 北東 5 10km以上 19.3 64 1012.6
17 08:56 北東 3 10km以上 18.2 73 1012.7
17 07:56 静穏 0 10km以上 16.2 85 1012.3
17 06:56 静穏 0 10km以上 15.4 87 1012.1
17 05:56 西北西 2 10km以上 14.7 90 1011.7
17 04:56 静穏 0 10km以上 15.1 88 1011.7
17 04:34 静穏 0 10km以上 15 88 1011.3
17 04:17 西 2 10km以上 15 88 1011.3 弱い雨
17 03:56 西 2 10km以上 15.4 85 1011 弱い雨
17 03:23 静穏 0 10km以上 16 82 1010.6
17 03:10 静穏 0 10km以上 15 88 1010.6 弱い霧雨
17 02:56 西北西 2 10km以上 15.5 84 1010.9 弱い霧雨
17 02:42 西北西 3 10km以上 16 82 1010.9 弱い雨
17 01:56 北西 2 10km以上 15.9 79 1010.9
17 00:56 静穏 0 10km以上 15.8 82 1011.2
16 23:56 静穏 0 10km以上 15.6 84 1011.9
16 22:56 北西 2 10km以上 16.7 77 1012.3
16 22:41 北西 2 10km以上 17 77 1012.6
16 22:26 北西 2 10km以上 16 82 1012.6
16 21:56 静穏 0 10km以上 16 82 1013
16 20:56 北西 2 10km以上 16.5 80 1012.7
16 19:56 北西 2 10km以上 17 77 1013.4
16 18:56 北北西 3 10km以上 17.5 76 1013.4
16 17:56 4 10km以上 17.8 71 1013.4
16 16:56 北東 2 10km以上 18.3 68 1014.1
16 15:56 北東 2 10km以上 19 61 1013.7
16 14:56 北東 3 10km以上 19.3 61 1014
16 13:56 静穏 0 10km以上 19.6 60 1014.3
RJTY 180256Z AUTO 06006KT 10SM FEW080 SCT100 19/09 A3005 RMK AO2 SLP178 T01890094 FZRANO $
RJTY 180156Z AUTO 03006KT 10SM SCT100 19/10 A3005 RMK AO2 SLP178 T01880098 FZRANO $
RJTY 180056Z AUTO 05006KT 10SM FEW095 18/11 A3006 RMK AO2 SLP181 T01790107 FZRANO $
RJTY 172356Z AUTO 36007KT 10SM CLR 17/11 A3008 RMK AO2 SLP188 60000 T01710114 10171 20116 51010 FZRANO $
RJTY 172256Z AUTO 02006KT 10SM SCT100 BKN180 15/12 A3007 RMK AO2 SLP185 T01520118 FZRANO $
RJTY 172156Z AUTO 01005KT 10SM OVC100 14/12 A3007 RMK AO2 SLP185 T01400122 FZRANO $
RJTY 172056Z AUTO 01004KT 10SM SCT060 12/11 A3005 RMK AO2 SLP179 60000 T01220106 52009 FZRANO $
RJTY 171956Z AUTO 01004KT 10SM CLR 12/11 A3004 RMK AO2 DZB1856E1857 SLP176 P0000 T01240108 FZRANO $
RJTY 171856Z AUTO 05004KT 10SM CLR 13/10 A3002 RMK AO2 DZB48 SLP168 P0000 T01280103 FZRANO $
RJTY 171456Z 00000KT 10SM BKN036 BKN065 16/12 A3000 RMK AO2 SLP159 T01570115 402160147 58001 FZRANO $
RJTY 171356Z AUTO 36004KT 10SM OVC033 16/12 A3001 RMK AO2 SLP163 T01570115 FZRANO CHINO RWY18 $
RJTY 171256Z AUTO 00000KT 10SM BKN031 OVC070 16/11 A3002 RMK AO2 SLP167 T01630114 FZRANO CHINO RWY18 $
RJTY 171241Z AUTO 00000KT 10SM OVC030 16/11 A3002 RMK AO2 SLP167 FZRANO CHINO RWY18 $
RJTY 171156Z AUTO 35003KT 10SM BKN029 OVC070 16/11 A3001 RMK AO2 CIG 027V075 SLP164 T01630110 10192 20163 52016 FZRANO CHINO RWY18 $
RJTY 171126Z AUTO 08003KT 10SM FEW025 BKN075 17/11 A2999 RMK AO2 SLP157 FZRANO CHINO RWY18 $
RJTY 171056Z AUTO 00000KT 10SM BKN025 BKN080 17/11 A2999 RMK AO2 CIG 023V029 SLP157 T01700106 FZRANO CHINO RWY18 $
RJTY 170956Z AUTO 31005KT 10SM BKN033 BKN046 OVC075 18/11 A2998 RMK AO2 SLP154 T01760105 FZRANO $
RJTY 170856Z AUTO 32005KT 10SM OVC075 18/11 A2996 RMK AO2 SLP148 T01790107 52025 FZRANO $
RJTY 170756Z AUTO 32006KT 10SM OVC075 18/11 A2993 RMK AO2 SLP137 T01830106 FZRANO $
RJTY 170656Z AUTO 33005KT 10SM BKN070 19/10 A2991 RMK AO2 SLP130 T01890099 FZRANO $
RJTY 170556Z AUTO 34007KT 10SM OVC070 19/09 A2988 RMK AO2 SLP120 T01910090 10216 20182 53002 FZRANO $
RJTY 170456Z AUTO 34008KT 10SM OVC070 19/11 A2988 RMK AO2 SLP120 T01940107 FZRANO $
RJTY 170356Z AUTO 34012KT 10SM OVC070 20/10 A2987 RMK AO2 SLP116 T01970104 FZRANO $
RJTY 170256Z AUTO 06011KT 10SM FEW040 22/11 A2988 RMK AO2 SLP119 T02160113 58009 FZRANO $
RJTY 170227Z AUTO 07010KT 10SM CLR 21/12 A2988 RMK AO2 WSHFT 25 SLP119 FZRANO $
RJTY 170156Z AUTO 06009KT 10SM CLR 21/12 A2989 RMK AO2 SLP122 T02080117 FZRANO $
RJTY 170056Z AUTO 04009KT 10SM FEW065 19/12 A2990 RMK AO2 SLP126 T01930123 FZRANO CHINO RWY18 $
RJTY 162356Z AUTO 05006KT 10SM CLR 18/13 A2990 RMK AO2 SLP127 60000 T01820133 10183 20147 52010 FZRANO CHINO RWY18 $
RJTY 162256Z AUTO 00000KT 10SM FEW130 16/14 A2989 RMK AO2 SLP123 T01620137 FZRANO $
RJTY 162156Z AUTO 00000KT 10SM SCT040 BKN130 15/13 A2988 RMK AO2 SLP121 T01540132 FZRANO CHINO RWY18 $
RJTY 162056Z AUTO 29004KT 10SM FEW130 SCT170 15/13 A2987 RMK AO2 DZB1956E1958 SLP117 P0000 60000 T01470131 52007 FZRANO CHINO RWY18 $
RJTY 161956Z AUTO 00000KT 10SM CLR 15/13 A2987 RMK AO2 RAE12DZB12E15RAB17E35DZB35E36DZB48 SLP117 P0000 T01510131 FZRANO $
RJTY 161934Z AUTO 00000KT 10SM CLR 15/13 A2986 RMK AO2 RAE12DZB12E15RAB17 SLP113 FZRANO $
RJTY 161917Z AUTO 28003KT 10SM -RA FEW022 FEW070 SCT110 15/13 A2986 RMK AO2 RAE12DZB12E15RAB17 SLP113 FZRANO $
RJTY 161856Z AUTO 27004KT 10SM -RA FEW075 SCT110 15/13 A2985 RMK AO2 DZE09DZB10E11RAB11E23RAB52 SLP110 P0000 T01540129 FZRANO $
RJTY 161823Z AUTO 00000KT 10SM SCT110 16/13 A2984 RMK AO2 DZE09DZB10E11RAB11E23 SLP106 FZRANO $
RJTY 161810Z AUTO 00000KT 10SM -DZ SCT100 15/13 A2984 RMK AO2 DZE09DZB10 SLP106 FZRANO $
RJTY 161756Z AUTO 29003KT 10SM -DZ FEW080 FEW100 16/13 A2985 RMK AO2 RAB42E55DZB55 SLP109 P0000 60000 T01550128 10167 20155 55012 FZRANO $
RJTY 161742Z AUTO 29005KT 10SM -RA FEW090 16/13 A2985 RMK AO2 RAB42 SLP109 FZRANO $
RJTY 161656Z AUTO 32004KT 10SM SCT110 BKN150 16/12 A2985 RMK AO2 SLP109 T01590123 FZRANO $
RJTY 161556Z AUTO 00000KT 10SM CLR 16/13 A2986 RMK AO2 SLP112 T01580127 FZRANO $
RJTY 161456Z AUTO 00000KT 10SM CLR 16/13 A2988 RMK AO2 SLP119 T01560129 402000131 58005 FZRANO $
RJTY 161356Z AUTO 32004KT 10SM SCT022 BKN140 17/13 A2989 RMK AO2 SLP123 T01670126 FZRANO $
RJTY 161341Z AUTO 31004KT 10SM BKN021 BKN032 BKN150 17/13 A2990 RMK AO2 CIG 021V029 BKN021 V SCT SLP126 FZRANO $
RJTY 161326Z AUTO 32004KT 10SM FEW020 SCT029 BKN150 BKN230 16/13 A2990 RMK AO2 SLP126 FZRANO $
RJTY 161256Z AUTO 00000KT 10SM BKN028 16/13 A2991 RMK AO2 CIG 028V230 BKN V FEW CIG 027 RWY18 SLP130 T01600129 FZRANO $
RJTY 161156Z AUTO 32004KT 10SM FEW160 17/13 A2990 RMK AO2 SLP127 T01650130 10194 20165 56007 FZRANO $
RJTY 161056Z AUTO 32003KT 10SM FEW032 SCT180 17/13 A2992 RMK AO2 SLP134 T01700129 FZRANO $
RJTY 160956Z AUTO 33006KT 10SM CLR 18/13 A2992 RMK AO2 SLP134 T01750132 FZRANO $
RJTY 160856Z AUTO 36007KT 10SM CLR 18/13 A2992 RMK AO2 SLP134 T01780125 55006 FZRANO $
RJTY 160756Z AUTO 05003KT 10SM CLR 18/12 A2994 RMK AO2 SLP141 T01830123 FZRANO $
RJTY 160656Z AUTO 05004KT 10SM CLR 19/11 A2993 RMK AO2 SLP137 T01900113 FZRANO $
RJTY 160556Z AUTO 05006KT 10SM CLR 19/12 A2994 RMK AO2 SLP140 T01930116 10200 20174 57013 FZRANO $
RJTY 160456Z AUTO 00000KT 10SM FEW055 BKN180 20/12 A2995 RMK AO2 SLP143 T01960116 FZRANO $